Terminal Aerodrome Forecast
Issued by NWS

Home | Current Version | Previous Version | Text Only | Print | Product List | Glossary On
Versions: 1 2 3 4 5 6 7 8 9 10 11 12 13 14
715
FTUS44 KSJT 260530 CCA
TAFBBD
TAF COR
KBBD 260530Z 2605/2706 02011KT 2SM SHRA BR OVC008
     FM260900 02011KT 5SM -SHRA BR OVC008
     FM261500 03011KT P6SM VCSH BKN012
     FM262200 02010KT P6SM BKN050
      AMD NOT SKED=

USA.gov is the U.S. government's official web portal to all federal, state and local government web resources and services.